Adger, Alabama
Current Conditions -  °F | °C
As of 10:53 PM on Saturday 22 Nov 2014 (Local Time) from KBHM Reporting Station
Overcast Overcast  
Wind Chill: 58°   Ceiling: 2300
Heat Index: 58°   Visibility: 10mi
Dew Point: 48°   Wind: 15mph
Humidity: 70%   Direction: 120°ESE
Pressure: 30.11"   Gusts: 22mph
Location:  33.44°N, 87.19°W
Report Text: KBHM 230453Z 12013G19KT 10SM BKN023 OVC060 14/09 A3011 RMK AO2 SLP191 T01440089
Loading
Personal Weather Stations






























Interactive Weather Map New forecast layout! Learn more

10-Day Weather Forecast

Advertisements
Track Severe Weather on mobile